sensor_id;sensor_type;location;lat;lon;timestamp;temperature;humidity
16491;DHT22;8356;51.214;3.270;2023-02-15T00:01:08;205.40;2252.80
16491;DHT22;8356;51.214;3.270;2023-02-15T00:03:34;205.50;2252.80
16491;DHT22;8356;51.214;3.270;2023-02-15T00:06:01;205.50;2252.80
16491;DHT22;8356;51.214;3.270;2023-02-15T00:08:26;205.40;2252.80
16491;DHT22;8356;51.214;3.270;2023-02-15T00:10:52;205.30;2252.80
16491;DHT22;8356;51.214;3.270;2023-02-15T00:13:18;205.00;2252.80
16491;DHT22;8356;51.214;3.270;2023-02-15T00:15:43;205.20;2252.80
16491;DHT22;8356;51.214;3.270;2023-02-15T00:18:09;205.30;2252.80
16491;DHT22;8356;51.214;3.270;2023-02-15T00:20:35;205.30;2252.80
16491;DHT22;8356;51.214;3.270;2023-02-15T00:23:00;205.40;2252.80
16491;DHT22;8356;51.214;3.270;2023-02-15T00:25:26;205.40;2252.80
16491;DHT22;8356;51.214;3.270;2023-02-15T00:27:52;205.20;2252.80
16491;DHT22;8356;51.214;3.270;2023-02-15T00:30:17;205.40;2252.80
16491;DHT22;8356;51.214;3.270;2023-02-15T00:32:43;205.30;2252.80
16491;DHT22;8356;51.214;3.270;2023-02-15T00:35:09;205.40;2252.80
16491;DHT22;8356;51.214;3.270;2023-02-15T00:37:34;205.40;2252.80
16491;DHT22;8356;51.214;3.270;2023-02-15T00:40:00;205.20;2252.80
16491;DHT22;8356;51.214;3.270;2023-02-15T00:42:26;205.00;2252.80
16491;DHT22;8356;51.214;3.270;2023-02-15T00:44:52;205.10;2252.80
16491;DHT22;8356;51.214;3.270;2023-02-15T00:47:17;205.10;2252.80
16491;DHT22;8356;51.214;3.270;2023-02-15T00:49:43;205.10;2252.80
16491;DHT22;8356;51.214;3.270;2023-02-15T00:52:09;205.00;2252.80
16491;DHT22;8356;51.214;3.270;2023-02-15T00:54:34;204.90;2252.80
16491;DHT22;8356;51.214;3.270;2023-02-15T00:57:00;204.90;2252.80
16491;DHT22;8356;51.214;3.270;2023-02-15T00:59:26;204.80;2252.80
16491;DHT22;8356;51.214;3.270;2023-02-15T01:01:52;180.10;2252.80
16491;DHT22;8356;51.214;3.270;2023-02-15T01:04:17;180.00;2252.80
16491;DHT22;8356;51.214;3.270;2023-02-15T01:06:43;179.70;2252.80
16491;DHT22;8356;51.214;3.270;2023-02-15T01:09:09;179.60;2252.80
16491;DHT22;8356;51.214;3.270;2023-02-15T01:11:34;179.70;2252.80
16491;DHT22;8356;51.214;3.270;2023-02-15T01:14:00;179.70;2252.80
16491;DHT22;8356;51.214;3.270;2023-02-15T01:16:27;179.80;2252.80
16491;DHT22;8356;51.214;3.270;2023-02-15T01:18:54;204.80;2252.80
16491;DHT22;8356;51.214;3.270;2023-02-15T01:21:21;205.10;2252.80
16491;DHT22;8356;51.214;3.270;2023-02-15T01:23:48;205.00;2252.80
16491;DHT22;8356;51.214;3.270;2023-02-15T01:26:14;204.80;2252.80
16491;DHT22;8356;51.214;3.270;2023-02-15T01:28:40;205.10;2252.80
16491;DHT22;8356;51.214;3.270;2023-02-15T01:31:12;180.10;2252.80
16491;DHT22;8356;51.214;3.270;2023-02-15T01:33:38;179.90;2252.80
16491;DHT22;8356;51.214;3.270;2023-02-15T01:36:04;180.10;2252.80
16491;DHT22;8356;51.214;3.270;2023-02-15T01:38:30;179.80;2252.80
16491;DHT22;8356;51.214;3.270;2023-02-15T01:40:56;179.70;2252.80
16491;DHT22;8356;51.214;3.270;2023-02-15T01:43:55;179.80;2252.80
16491;DHT22;8356;51.214;3.270;2023-02-15T01:46:40;179.90;2252.80
16491;DHT22;8356;51.214;3.270;2023-02-15T01:49:15;180.00;2252.80
16491;DHT22;8356;51.214;3.270;2023-02-15T01:51:43;180.10;2252.80
16491;DHT22;8356;51.214;3.270;2023-02-15T01:54:21;204.80;2252.80
16491;DHT22;8356;51.214;3.270;2023-02-15T01:56:47;180.10;2252.80
16491;DHT22;8356;51.214;3.270;2023-02-15T01:59:17;179.90;2252.80
16491;DHT22;8356;51.214;3.270;2023-02-15T02:01:45;179.80;2252.80
16491;DHT22;8356;51.214;3.270;2023-02-15T02:04:23;179.80;2252.80
16491;DHT22;8356;51.214;3.270;2023-02-15T02:06:51;179.80;2252.80
16491;DHT22;8356;51.214;3.270;2023-02-15T02:09:17;179.70;2252.80
16491;DHT22;8356;51.214;3.270;2023-02-15T02:11:45;179.60;2252.80
16491;DHT22;8356;51.214;3.270;2023-02-15T02:14:11;179.40;2252.80
16491;DHT22;8356;51.214;3.270;2023-02-15T02:16:56;179.20;2252.80
16491;DHT22;8356;51.214;3.270;2023-02-15T02:39:33;154.40;2252.80
16491;DHT22;8356;51.214;3.270;2023-02-15T02:47:13;154.40;2252.80
16491;DHT22;8356;51.214;3.270;2023-02-15T02:49:42;179.40;2252.80
16491;DHT22;8356;51.214;3.270;2023-02-15T03:00:56;153.90;2252.80
16491;DHT22;8356;51.214;3.270;2023-02-15T03:09:11;154.50;2252.80
16491;DHT22;8356;51.214;3.270;2023-02-15T03:11:42;179.40;2252.80
16491;DHT22;8356;51.214;3.270;2023-02-15T03:14:08;179.40;2252.80
16491;DHT22;8356;51.214;3.270;2023-02-15T03:16:34;179.40;2252.80
16491;DHT22;8356;51.214;3.270;2023-02-15T03:19:08;179.50;2252.80
16491;DHT22;8356;51.214;3.270;2023-02-15T03:24:38;179.50;2252.80
16491;DHT22;8356;51.214;3.270;2023-02-15T03:27:10;179.60;2252.80
16491;DHT22;8356;51.214;3.270;2023-02-15T03:29:37;179.50;2252.80
16491;DHT22;8356;51.214;3.270;2023-02-15T03:32:05;179.40;2252.80
16491;DHT22;8356;51.214;3.270;2023-02-15T03:34:32;179.40;2252.80
16491;DHT22;8356;51.214;3.270;2023-02-15T03:37:15;179.40;2252.80
16491;DHT22;8356;51.214;3.270;2023-02-15T03:40:04;154.50;2252.80
16491;DHT22;8356;51.214;3.270;2023-02-15T03:42:55;179.20;2252.80
16491;DHT22;8356;51.214;3.270;2023-02-15T03:45:26;179.30;2252.80
16491;DHT22;8356;51.214;3.270;2023-02-15T03:47:56;179.30;2252.80
16491;DHT22;8356;51.214;3.270;2023-02-15T03:50:32;179.30;2252.80
16491;DHT22;8356;51.214;3.270;2023-02-15T03:53:20;179.40;2252.80
16491;DHT22;8356;51.214;3.270;2023-02-15T03:55:48;179.20;2252.80
16491;DHT22;8356;51.214;3.270;2023-02-15T03:58:14;154.40;2252.80
16491;DHT22;8356;51.214;3.270;2023-02-15T04:01:00;154.30;2252.80
16491;DHT22;8356;51.214;3.270;2023-02-15T04:03:56;154.50;2252.80
16491;DHT22;8356;51.214;3.270;2023-02-15T04:06:23;154.50;2252.80
16491;DHT22;8356;51.214;3.270;2023-02-15T04:08:48;154.40;2252.80
16491;DHT22;8356;51.214;3.270;2023-02-15T04:11:33;154.30;2252.80
16491;DHT22;8356;51.214;3.270;2023-02-15T04:13:58;154.30;2252.80
16491;DHT22;8356;51.214;3.270;2023-02-15T04:16:44;154.20;2252.80
16491;DHT22;8356;51.214;3.270;2023-02-15T04:19:09;154.10;2252.80
16491;DHT22;8356;51.214;3.270;2023-02-15T04:21:54;154.00;2252.80
16491;DHT22;8356;51.214;3.270;2023-02-15T04:24:38;154.00;2252.80
16491;DHT22;8356;51.214;3.270;2023-02-15T04:27:22;154.10;2252.80
16491;DHT22;8356;51.214;3.270;2023-02-15T04:29:47;154.00;2252.80
16491;DHT22;8356;51.214;3.270;2023-02-15T04:32:15;153.90;2252.80
16491;DHT22;8356;51.214;3.270;2023-02-15T04:34:40;153.90;2252.80
16491;DHT22;8356;51.214;3.270;2023-02-15T04:37:06;154.00;2252.80
16491;DHT22;8356;51.214;3.270;2023-02-15T04:39:32;154.00;2252.80
16491;DHT22;8356;51.214;3.270;2023-02-15T04:41:57;154.10;2252.80
16491;DHT22;8356;51.214;3.270;2023-02-15T04:44:23;154.10;2252.80
16491;DHT22;8356;51.214;3.270;2023-02-15T04:46:49;154.20;2252.80
16491;DHT22;8356;51.214;3.270;2023-02-15T04:49:14;154.30;2252.80
16491;DHT22;8356;51.214;3.270;2023-02-15T04:51:40;154.30;2252.80
16491;DHT22;8356;51.214;3.270;2023-02-15T04:54:06;154.30;2252.80
16491;DHT22;8356;51.214;3.270;2023-02-15T04:56:31;154.10;2252.80
16491;DHT22;8356;51.214;3.270;2023-02-15T04:58:59;154.10;2252.80
16491;DHT22;8356;51.214;3.270;2023-02-15T05:01:24;154.10;2252.80
16491;DHT22;8356;51.214;3.270;2023-02-15T05:03:50;154.10;2252.80
16491;DHT22;8356;51.214;3.270;2023-02-15T05:06:16;154.30;2252.80
16491;DHT22;8356;51.214;3.270;2023-02-15T05:08:41;154.30;2252.80
16491;DHT22;8356;51.214;3.270;2023-02-15T05:11:07;154.30;2252.80
16491;DHT22;8356;51.214;3.270;2023-02-15T05:13:33;154.40;2252.80
16491;DHT22;8356;51.214;3.270;2023-02-15T05:15:58;154.20;2252.80
16491;DHT22;8356;51.214;3.270;2023-02-15T05:18:24;154.20;2252.80
16491;DHT22;8356;51.214;3.270;2023-02-15T05:20:49;154.10;2252.80
16491;DHT22;8356;51.214;3.270;2023-02-15T05:23:15;154.10;2252.80
16491;DHT22;8356;51.214;3.270;2023-02-15T05:25:45;154.00;2252.80
16491;DHT22;8356;51.214;3.270;2023-02-15T05:28:29;154.00;2252.80
16491;DHT22;8356;51.214;3.270;2023-02-15T05:31:16;153.90;2252.80
16491;DHT22;8356;51.214;3.270;2023-02-15T05:33:42;153.80;2252.80
16491;DHT22;8356;51.214;3.270;2023-02-15T05:36:08;153.80;2252.80
16491;DHT22;8356;51.214;3.270;2023-02-15T05:38:34;153.80;2252.80
16491;DHT22;8356;51.214;3.270;2023-02-15T05:41:03;179.20;2252.80
16491;DHT22;8356;51.214;3.270;2023-02-15T05:43:30;153.80;2252.80
16491;DHT22;8356;51.214;3.270;2023-02-15T05:45:55;128.20;2252.80
16491;DHT22;8356;51.214;3.270;2023-02-15T05:48:23;153.80;2252.80
16491;DHT22;8356;51.214;3.270;2023-02-15T05:51:03;153.80;2252.80
16491;DHT22;8356;51.214;3.270;2023-02-15T05:53:30;153.80;2252.80
16491;DHT22;8356;51.214;3.270;2023-02-15T05:55:56;153.90;2252.80
16491;DHT22;8356;51.214;3.270;2023-02-15T05:58:29;153.80;2252.80
16491;DHT22;8356;51.214;3.270;2023-02-15T06:00:55;154.00;2252.80
16491;DHT22;8356;51.214;3.270;2023-02-15T06:03:21;154.10;2252.80
16491;DHT22;8356;51.214;3.270;2023-02-15T06:05:48;153.90;2252.80
16491;DHT22;8356;51.214;3.270;2023-02-15T06:08:13;153.80;2252.80
16491;DHT22;8356;51.214;3.270;2023-02-15T06:10:39;153.70;2252.80
16491;DHT22;8356;51.214;3.270;2023-02-15T06:13:05;154.10;2252.80
16491;DHT22;8356;51.214;3.270;2023-02-15T06:15:31;153.90;2252.80
16491;DHT22;8356;51.214;3.270;2023-02-15T06:17:57;153.90;2252.80
16491;DHT22;8356;51.214;3.270;2023-02-15T06:20:23;154.00;2252.80
16491;DHT22;8356;51.214;3.270;2023-02-15T06:22:48;154.10;2252.80
16491;DHT22;8356;51.214;3.270;2023-02-15T06:25:14;154.10;2252.80
16491;DHT22;8356;51.214;3.270;2023-02-15T06:27:43;154.10;2252.80
16491;DHT22;8356;51.214;3.270;2023-02-15T06:30:09;154.00;2252.80
16491;DHT22;8356;51.214;3.270;2023-02-15T06:32:35;153.90;2252.80
16491;DHT22;8356;51.214;3.270;2023-02-15T06:35:01;154.00;2252.80
16491;DHT22;8356;51.214;3.270;2023-02-15T06:37:27;154.10;2252.80
16491;DHT22;8356;51.214;3.270;2023-02-15T06:39:53;154.20;2252.80
16491;DHT22;8356;51.214;3.270;2023-02-15T06:42:18;154.20;2252.80
16491;DHT22;8356;51.214;3.270;2023-02-15T06:44:44;154.20;2252.80
16491;DHT22;8356;51.214;3.270;2023-02-15T06:47:10;154.10;2252.80
16491;DHT22;8356;51.214;3.270;2023-02-15T06:49:37;154.10;2252.80
16491;DHT22;8356;51.214;3.270;2023-02-15T06:52:03;154.00;2252.80
16491;DHT22;8356;51.214;3.270;2023-02-15T06:54:29;153.90;2252.80
16491;DHT22;8356;51.214;3.270;2023-02-15T06:56:54;153.80;2252.80
16491;DHT22;8356;51.214;3.270;2023-02-15T06:59:20;153.80;2252.80
16491;DHT22;8356;51.214;3.270;2023-02-15T07:01:46;154.00;2252.80
16491;DHT22;8356;51.214;3.270;2023-02-15T07:04:11;153.80;2252.80
16491;DHT22;8356;51.214;3.270;2023-02-15T07:06:37;153.80;2252.80
16491;DHT22;8356;51.214;3.270;2023-02-15T07:09:03;153.90;2252.80
16491;DHT22;8356;51.214;3.270;2023-02-15T07:11:30;153.90;2252.80
16491;DHT22;8356;51.214;3.270;2023-02-15T07:14:15;153.90;2252.80
16491;DHT22;8356;51.214;3.270;2023-02-15T07:16:40;154.00;2252.80
16491;DHT22;8356;51.214;3.270;2023-02-15T07:19:06;154.10;2252.80
16491;DHT22;8356;51.214;3.270;2023-02-15T07:21:33;154.10;2252.80
16491;DHT22;8356;51.214;3.270;2023-02-15T07:23:59;154.10;2252.80
16491;DHT22;8356;51.214;3.270;2023-02-15T07:26:25;153.90;2252.80
16491;DHT22;8356;51.214;3.270;2023-02-15T07:28:50;153.80;2252.80
16491;DHT22;8356;51.214;3.270;2023-02-15T07:31:16;154.00;2252.80
16491;DHT22;8356;51.214;3.270;2023-02-15T07:33:42;154.10;2252.80
16491;DHT22;8356;51.214;3.270;2023-02-15T07:36:08;154.20;2252.80
16491;DHT22;8356;51.214;3.270;2023-02-15T07:38:38;154.50;2252.80
16491;DHT22;8356;51.214;3.270;2023-02-15T07:41:06;154.40;2252.80
16491;DHT22;8356;51.214;3.270;2023-02-15T07:43:34;154.40;2252.80
16491;DHT22;8356;51.214;3.270;2023-02-15T07:46:05;154.50;2252.80
16491;DHT22;8356;51.214;3.270;2023-02-15T07:48:33;179.20;2252.80
16491;DHT22;8356;51.214;3.270;2023-02-15T07:51:04;154.50;2252.80
16491;DHT22;8356;51.214;3.270;2023-02-15T07:53:30;154.50;2252.80
16491;DHT22;8356;51.214;3.270;2023-02-15T07:56:02;179.20;2252.80
16491;DHT22;8356;51.214;3.270;2023-02-15T07:58:28;179.30;2252.80
16491;DHT22;8356;51.214;3.270;2023-02-15T08:01:13;179.50;2252.80
16491;DHT22;8356;51.214;3.270;2023-02-15T08:03:39;179.50;2252.80
16491;DHT22;8356;51.214;3.270;2023-02-15T08:06:05;179.60;2252.80
16491;DHT22;8356;51.214;3.270;2023-02-15T08:08:33;179.60;2252.80
16491;DHT22;8356;51.214;3.270;2023-02-15T08:13:58;179.80;2252.80
16491;DHT22;8356;51.214;3.270;2023-02-15T08:18:53;204.80;2252.80
16491;DHT22;8356;51.214;3.270;2023-02-15T08:21:20;204.80;2252.80
16491;DHT22;8356;51.214;3.270;2023-02-15T08:23:47;205.00;2252.80
16491;DHT22;8356;51.214;3.270;2023-02-15T08:26:13;204.90;2252.80
16491;DHT22;8356;51.214;3.270;2023-02-15T08:28:40;204.90;2252.80
16491;DHT22;8356;51.214;3.270;2023-02-15T08:31:07;205.00;2252.80
16491;DHT22;8356;51.214;3.270;2023-02-15T08:33:34;205.10;2252.80
16491;DHT22;8356;51.214;3.270;2023-02-15T08:36:10;205.20;2252.80
16491;DHT22;8356;51.214;3.270;2023-02-15T08:38:37;205.40;2252.80
16491;DHT22;8356;51.214;3.270;2023-02-15T08:41:18;205.40;2252.80
16491;DHT22;8356;51.214;3.270;2023-02-15T08:43:46;205.50;2252.80
16491;DHT22;8356;51.214;3.270;2023-02-15T08:46:14;205.50;2252.80
16491;DHT22;8356;51.214;3.270;2023-02-15T08:48:40;205.60;2252.80
16491;DHT22;8356;51.214;3.270;2023-02-15T08:54:02;230.40;2252.80
16491;DHT22;8356;51.214;3.270;2023-02-15T08:56:31;230.50;2252.80
16491;DHT22;8356;51.214;3.270;2023-02-15T08:58:58;230.50;2252.80
16491;DHT22;8356;51.214;3.270;2023-02-15T09:01:27;230.40;2252.80
16491;DHT22;8356;51.214;3.270;2023-02-15T09:03:58;230.40;2252.80
16491;DHT22;8356;51.214;3.270;2023-02-15T09:06:25;230.40;2252.80
16491;DHT22;8356;51.214;3.270;2023-02-15T09:08:52;230.40;2252.80
16491;DHT22;8356;51.214;3.270;2023-02-15T09:11:24;230.50;2252.80
16491;DHT22;8356;51.214;3.270;2023-02-15T09:13:53;230.70;2252.80
16491;DHT22;8356;51.214;3.270;2023-02-15T09:16:20;230.80;2252.80
16491;DHT22;8356;51.214;3.270;2023-02-15T09:18:46;230.90;2252.80
16491;DHT22;8356;51.214;3.270;2023-02-15T09:21:14;256.10;2252.80
16491;DHT22;8356;51.214;3.270;2023-02-15T09:23:42;231.20;2252.80
16491;DHT22;8356;51.214;3.270;2023-02-15T09:26:13;231.20;2252.80
16491;DHT22;8356;51.214;3.270;2023-02-15T09:28:39;231.20;2252.80
16491;DHT22;8356;51.214;3.270;2023-02-15T09:31:07;231.30;2252.80
16491;DHT22;8356;51.214;3.270;2023-02-15T09:33:34;231.20;2252.80
16491;DHT22;8356;51.214;3.270;2023-02-15T09:36:00;230.80;2252.80
16491;DHT22;8356;51.214;3.270;2023-02-15T09:38:26;231.20;2252.80
16491;DHT22;8356;51.214;3.270;2023-02-15T09:41:24;231.30;2252.80
16491;DHT22;8356;51.214;3.270;2023-02-15T09:47:13;256.10;2252.80
16491;DHT22;8356;51.214;3.270;2023-02-15T09:55:34;256.50;2252.80
16491;DHT22;8356;51.214;3.270;2023-02-15T10:06:38;281.60;2278.40
16491;DHT22;8356;51.214;3.270;2023-02-15T10:09:18;281.70;2278.40
16491;DHT22;8356;51.214;3.270;2023-02-15T10:20:50;282.00;2278.40
16491;DHT22;8356;51.214;3.270;2023-02-15T10:23:34;282.00;2278.40
16491;DHT22;8356;51.214;3.270;2023-02-15T10:31:24;282.30;2278.40
16491;DHT22;8356;51.214;3.270;2023-02-15T10:34:19;282.40;2278.40
16491;DHT22;8356;51.214;3.270;2023-02-15T10:37:09;307.20;2304.00
16491;DHT22;8356;51.214;3.270;2023-02-15T10:40:05;307.40;2304.00
16491;DHT22;8356;51.214;3.270;2023-02-15T10:45:30;307.50;2304.00
16491;DHT22;8356;51.214;3.270;2023-02-15T10:50:48;307.70;2304.00
16491;DHT22;8356;51.214;3.270;2023-02-15T10:59:02;332.80;2329.60
16491;DHT22;8356;51.214;3.270;2023-02-15T11:02:07;333.00;2329.60
16491;DHT22;8356;51.214;3.270;2023-02-15T11:04:58;333.20;2329.60
16491;DHT22;8356;51.214;3.270;2023-02-15T11:07:33;333.30;2329.60
16491;DHT22;8356;51.214;3.270;2023-02-15T11:12:32;333.50;2329.60
16491;DHT22;8356;51.214;3.270;2023-02-15T11:15:11;333.30;2329.60
16491;DHT22;8356;51.214;3.270;2023-02-15T11:17:47;333.60;2329.60
16491;DHT22;8356;51.214;3.270;2023-02-15T11:20:41;333.60;2329.60
16491;DHT22;8356;51.214;3.270;2023-02-15T11:23:14;333.60;2329.60
16491;DHT22;8356;51.214;3.270;2023-02-15T11:25:43;333.50;2329.60
16491;DHT22;8356;51.214;3.270;2023-02-15T11:28:30;333.50;2329.60
16491;DHT22;8356;51.214;3.270;2023-02-15T11:31:00;333.50;2329.60
16491;DHT22;8356;51.214;3.270;2023-02-15T11:33:35;333.60;2329.60
16491;DHT22;8356;51.214;3.270;2023-02-15T11:36:18;333.60;2329.60
16491;DHT22;8356;51.214;3.270;2023-02-15T11:38:46;333.60;2329.60
16491;DHT22;8356;51.214;3.270;2023-02-15T11:41:18;333.60;2329.60
16491;DHT22;8356;51.214;3.270;2023-02-15T11:46:29;358.50;2329.60
16491;DHT22;8356;51.214;3.270;2023-02-15T11:48:54;358.50;2329.60
16491;DHT22;8356;51.214;3.270;2023-02-15T11:51:22;358.60;2329.60
16491;DHT22;8356;51.214;3.270;2023-02-15T11:53:49;358.60;2329.60
16491;DHT22;8356;51.214;3.270;2023-02-15T11:56:21;358.50;2329.60
16491;DHT22;8356;51.214;3.270;2023-02-15T11:58:59;358.50;2329.60
16491;DHT22;8356;51.214;3.270;2023-02-15T12:01:45;358.50;2329.60
16491;DHT22;8356;51.214;3.270;2023-02-15T12:04:34;358.40;2329.60
16491;DHT22;8356;51.214;3.270;2023-02-15T12:07:03;333.70;2329.60
16491;DHT22;8356;51.214;3.270;2023-02-15T12:09:48;333.70;2329.60
16491;DHT22;8356;51.214;3.270;2023-02-15T12:14:50;333.70;2329.60
16491;DHT22;8356;51.214;3.270;2023-02-15T12:17:16;333.70;2329.60
16491;DHT22;8356;51.214;3.270;2023-02-15T12:19:42;358.40;2329.60
16491;DHT22;8356;51.214;3.270;2023-02-15T12:24:46;358.60;2329.60
16491;DHT22;8356;51.214;3.270;2023-02-15T12:27:24;358.70;2329.60
16491;DHT22;8356;51.214;3.270;2023-02-15T12:29:56;358.80;2329.60
16491;DHT22;8356;51.214;3.270;2023-02-15T12:32:29;358.90;2329.60
16491;DHT22;8356;51.214;3.270;2023-02-15T12:35:12;358.90;2329.60
16491;DHT22;8356;51.214;3.270;2023-02-15T12:37:39;359.00;2329.60
16491;DHT22;8356;51.214;3.270;2023-02-15T12:40:20;359.10;2329.60
16491;DHT22;8356;51.214;3.270;2023-02-15T12:42:46;359.20;2329.60
16491;DHT22;8356;51.214;3.270;2023-02-15T12:45:30;359.20;2329.60
16491;DHT22;8356;51.214;3.270;2023-02-15T12:48:18;359.20;2329.60
16491;DHT22;8356;51.214;3.270;2023-02-15T12:50:49;359.20;2329.60
16491;DHT22;8356;51.214;3.270;2023-02-15T12:55:54;359.30;2329.60
16491;DHT22;8356;51.214;3.270;2023-02-15T12:58:41;359.30;2329.60
16491;DHT22;8356;51.214;3.270;2023-02-15T13:01:10;359.30;2329.60
16491;DHT22;8356;51.214;3.270;2023-02-15T13:03:55;359.30;2329.60
16491;DHT22;8356;51.214;3.270;2023-02-15T13:06:21;359.30;2329.60
16491;DHT22;8356;51.214;3.270;2023-02-15T13:08:55;359.30;2329.60
16491;DHT22;8356;51.214;3.270;2023-02-15T13:11:26;384.00;2329.60
16491;DHT22;8356;51.214;3.270;2023-02-15T13:13:55;384.00;2329.60
16491;DHT22;8356;51.214;3.270;2023-02-15T13:16:42;384.00;2329.60
16491;DHT22;8356;51.214;3.270;2023-02-15T13:19:26;384.00;2329.60
16491;DHT22;8356;51.214;3.270;2023-02-15T13:21:54;384.10;2329.60
16491;DHT22;8356;51.214;3.270;2023-02-15T13:24:32;384.10;2329.60
16491;DHT22;8356;51.214;3.270;2023-02-15T13:26:59;384.10;2329.60
16491;DHT22;8356;51.214;3.270;2023-02-15T13:29:30;384.10;2329.60
16491;DHT22;8356;51.214;3.270;2023-02-15T13:32:07;384.10;2329.60
16491;DHT22;8356;51.214;3.270;2023-02-15T13:34:38;384.10;2329.60
16491;DHT22;8356;51.214;3.270;2023-02-15T13:37:36;384.10;2329.60
16491;DHT22;8356;51.214;3.270;2023-02-15T13:40:25;384.10;2329.60
16491;DHT22;8356;51.214;3.270;2023-02-15T13:43:03;384.00;2329.60
16491;DHT22;8356;51.214;3.270;2023-02-15T13:51:52;384.00;2329.60
16491;DHT22;8356;51.214;3.270;2023-02-15T13:54:42;384.00;2329.60
16491;DHT22;8356;51.214;3.270;2023-02-15T14:08:08;384.20;2329.60
16491;DHT22;8356;51.214;3.270;2023-02-15T14:10:46;384.20;2329.60
16491;DHT22;8356;51.214;3.270;2023-02-15T14:13:38;384.30;2329.60
16491;DHT22;8356;51.214;3.270;2023-02-15T14:16:20;384.20;2329.60
16491;DHT22;8356;51.214;3.270;2023-02-15T14:18:55;384.20;2329.60
16491;DHT22;8356;51.214;3.270;2023-02-15T14:21:40;384.20;2329.60
16491;DHT22;8356;51.214;3.270;2023-02-15T14:29:51;384.10;2329.60
16491;DHT22;8356;51.214;3.270;2023-02-15T14:32:25;384.20;2329.60
16491;DHT22;8356;51.214;3.270;2023-02-15T14:34:57;384.10;2329.60
16491;DHT22;8356;51.214;3.270;2023-02-15T14:37:37;384.10;2329.60
16491;DHT22;8356;51.214;3.270;2023-02-15T14:40:23;384.10;2329.60
16491;DHT22;8356;51.214;3.270;2023-02-15T14:43:18;384.10;2329.60
16491;DHT22;8356;51.214;3.270;2023-02-15T15:02:00;359.30;2329.60
16491;DHT22;8356;51.214;3.270;2023-02-15T15:04:38;359.30;2329.60
16491;DHT22;8356;51.214;3.270;2023-02-15T15:07:18;384.00;2329.60
16491;DHT22;8356;51.214;3.270;2023-02-15T15:09:48;384.00;2329.60
16491;DHT22;8356;51.214;3.270;2023-02-15T15:14:49;359.30;2329.60
16491;DHT22;8356;51.214;3.270;2023-02-15T15:17:51;359.30;2329.60
16491;DHT22;8356;51.214;3.270;2023-02-15T15:25:58;359.20;2329.60
16491;DHT22;8356;51.214;3.270;2023-02-15T15:40:00;359.00;2329.60
16491;DHT22;8356;51.214;3.270;2023-02-15T15:42:54;358.90;2329.60
16491;DHT22;8356;51.214;3.270;2023-02-15T15:46:45;358.90;2329.60
16491;DHT22;8356;51.214;3.270;2023-02-15T15:48:36;358.90;2329.60
16491;DHT22;8356;51.214;3.270;2023-02-15T15:51:11;358.90;2329.60
16491;DHT22;8356;51.214;3.270;2023-02-15T15:53:44;358.80;2329.60
16491;DHT22;8356;51.214;3.270;2023-02-15T15:56:21;358.80;2329.60
16491;DHT22;8356;51.214;3.270;2023-02-15T15:58:53;358.80;2329.60
16491;DHT22;8356;51.214;3.270;2023-02-15T16:01:28;358.80;2329.60
16491;DHT22;8356;51.214;3.270;2023-02-15T16:03:57;358.80;2329.60
16491;DHT22;8356;51.214;3.270;2023-02-15T16:06:37;358.90;2329.60
16491;DHT22;8356;51.214;3.270;2023-02-15T16:09:26;358.90;2329.60
16491;DHT22;8356;51.214;3.270;2023-02-15T16:11:54;359.00;2329.60
16491;DHT22;8356;51.214;3.270;2023-02-15T16:14:34;359.00;2329.60
16491;DHT22;8356;51.214;3.270;2023-02-15T16:17:02;359.00;2329.60
16491;DHT22;8356;51.214;3.270;2023-02-15T16:19:34;358.90;2329.60
16491;DHT22;8356;51.214;3.270;2023-02-15T16:22:02;358.90;2329.60
16491;DHT22;8356;51.214;3.270;2023-02-15T16:24:38;359.00;2329.60
16491;DHT22;8356;51.214;3.270;2023-02-15T16:30:33;359.00;2329.60
16491;DHT22;8356;51.214;3.270;2023-02-15T16:33:13;358.90;2329.60
16491;DHT22;8356;51.214;3.270;2023-02-15T16:35:58;358.90;2329.60
16491;DHT22;8356;51.214;3.270;2023-02-15T16:41:10;358.80;2329.60
16491;DHT22;8356;51.214;3.270;2023-02-15T16:43:37;358.80;2329.60
16491;DHT22;8356;51.214;3.270;2023-02-15T16:46:08;358.70;2329.60
16491;DHT22;8356;51.214;3.270;2023-02-15T16:48:39;358.70;2329.60
16491;DHT22;8356;51.214;3.270;2023-02-15T16:51:06;358.50;2329.60
16491;DHT22;8356;51.214;3.270;2023-02-15T16:53:33;358.50;2329.60
16491;DHT22;8356;51.214;3.270;2023-02-15T16:56:01;358.50;2329.60
16491;DHT22;8356;51.214;3.270;2023-02-15T16:58:40;358.40;2329.60
16491;DHT22;8356;51.214;3.270;2023-02-15T17:01:09;333.70;2329.60
16491;DHT22;8356;51.214;3.270;2023-02-15T17:03:35;333.60;2329.60
16491;DHT22;8356;51.214;3.270;2023-02-15T17:06:02;333.50;2329.60
16491;DHT22;8356;51.214;3.270;2023-02-15T17:08:42;333.60;2329.60
16491;DHT22;8356;51.214;3.270;2023-02-15T17:11:13;333.50;2329.60
16491;DHT22;8356;51.214;3.270;2023-02-15T17:13:41;333.50;2329.60
16491;DHT22;8356;51.214;3.270;2023-02-15T17:16:31;333.50;2329.60
16491;DHT22;8356;51.214;3.270;2023-02-15T17:19:00;333.40;2329.60
16491;DHT22;8356;51.214;3.270;2023-02-15T17:21:40;333.30;2329.60
16491;DHT22;8356;51.214;3.270;2023-02-15T17:24:19;333.20;2329.60
16491;DHT22;8356;51.214;3.270;2023-02-15T17:26:50;333.10;2329.60
16491;DHT22;8356;51.214;3.270;2023-02-15T17:29:25;333.10;2329.60
16491;DHT22;8356;51.214;3.270;2023-02-15T17:31:54;333.10;2329.60
16491;DHT22;8356;51.214;3.270;2023-02-15T17:37:12;333.00;2329.60
16491;DHT22;8356;51.214;3.270;2023-02-15T17:39:38;333.00;2329.60
16491;DHT22;8356;51.214;3.270;2023-02-15T17:42:06;333.00;2329.60
16491;DHT22;8356;51.214;3.270;2023-02-15T17:44:32;333.00;2329.60
16491;DHT22;8356;51.214;3.270;2023-02-15T17:46:58;333.00;2329.60
16491;DHT22;8356;51.214;3.270;2023-02-15T17:49:26;332.80;2329.60
16491;DHT22;8356;51.214;3.270;2023-02-15T17:52:00;332.80;2329.60
16491;DHT22;8356;51.214;3.270;2023-02-15T17:54:26;332.80;2329.60
16491;DHT22;8356;51.214;3.270;2023-02-15T17:57:14;332.80;2329.60
16491;DHT22;8356;51.214;3.270;2023-02-15T17:59:40;332.80;2329.60
16491;DHT22;8356;51.214;3.270;2023-02-15T18:02:25;332.80;2329.60
16491;DHT22;8356;51.214;3.270;2023-02-15T18:05:13;332.80;2329.60
16491;DHT22;8356;51.214;3.270;2023-02-15T18:07:58;332.80;2329.60
16491;DHT22;8356;51.214;3.270;2023-02-15T18:10:42;332.90;2329.60
16491;DHT22;8356;51.214;3.270;2023-02-15T18:13:26;332.90;2329.60
16491;DHT22;8356;51.214;3.270;2023-02-15T18:15:52;332.90;2329.60
16491;DHT22;8356;51.214;3.270;2023-02-15T18:18:18;332.80;2329.60
16491;DHT22;8356;51.214;3.270;2023-02-15T18:20:44;332.80;2329.60
16491;DHT22;8356;51.214;3.270;2023-02-15T18:23:13;308.10;2304.00
16491;DHT22;8356;51.214;3.270;2023-02-15T18:25:39;308.00;2304.00